Time;durP1;ratioP1;P1;durP2;ratioP2;P2;SDS_P1;SDS_P2;PMS_P1;PMS_P2;Temp;Humidity;BMP_temperature;BMP_pressure;BME280_temperature;BME280_humidity;BME280_pressure;Samples;Min_cycle;Max_cycle;Signal;HPM_P1;HPM_P2
2022/05/27 00:01:59;;;;;;;21.60;4.57;;;14.50;99.90;;;;;;5035109;28;20058;-59
2022/05/27 00:04:25;;;;;;;22.58;4.80;;;14.40;99.90;;;;;;5033503;28;20052;-59
2022/05/27 00:06:51;;;;;;;15.88;4.30;;;14.40;99.90;;;;;;5033417;28;20533;-59
2022/05/27 00:09:17;;;;;;;17.25;4.40;;;14.40;99.90;;;;;;5036268;28;20028;-58
2022/05/27 00:11:43;;;;;;;16.13;4.30;;;14.30;99.90;;;;;;5031083;28;20068;-59
2022/05/27 00:14:08;;;;;;;16.83;3.88;;;14.30;99.90;;;;;;5028854;28;21751;-59
2022/05/27 00:16:34;;;;;;;21.75;4.60;;;14.30;99.90;;;;;;5039255;28;20151;-58
2022/05/27 00:19:00;;;;;;;22.90;3.92;;;14.20;99.90;;;;;;5044362;28;20056;-59
2022/05/27 00:21:27;;;;;;;20.10;4.20;;;14.20;99.90;;;;;;5030539;28;20048;-59
2022/05/27 00:23:53;;;;;;;21.17;4.40;;;14.20;99.90;;;;;;5036043;28;20589;-58
2022/05/27 00:26:19;;;;;;;17.20;4.18;;;14.20;99.90;;;;;;5051522;28;20044;-59
2022/05/27 00:28:44;;;;;;;18.27;4.57;;;14.10;99.90;;;;;;5044204;28;20452;-58
2022/05/27 00:31:10;;;;;;;15.65;3.95;;;14.10;99.90;;;;;;5025151;28;20052;-59
2022/05/27 00:33:38;;;;;;;16.35;3.83;;;14.00;99.90;;;;;;5035972;28;20048;-59
2022/05/27 00:36:10;;;;;;;19.27;3.95;;;14.00;99.90;;;;;;5033465;28;20053;-59
2022/05/27 00:38:36;;;;;;;15.43;3.75;;;14.00;99.90;;;;;;5036968;28;20494;-59
2022/05/27 00:41:04;;;;;;;16.60;4.15;;;13.90;99.90;;;;;;5030440;28;20045;-59
2022/05/27 00:43:30;;;;;;;23.30;4.63;;;13.90;99.90;;;;;;5030756;28;20141;-58
2022/05/27 00:46:05;;;;;;;20.30;4.18;;;13.90;99.90;;;;;;5030065;28;20052;-59
2022/05/27 00:48:36;;;;;;;23.77;4.60;;;13.90;99.90;;;;;;5033134;28;20142;-59
2022/05/27 00:51:05;;;;;;;20.42;3.95;;;13.80;99.90;;;;;;5035389;28;20090;-58
2022/05/27 00:53:51;;;;;;;14.70;3.75;;;13.80;99.90;;;;;;5031996;28;21080;-58
2022/05/27 00:56:21;;;;;;;18.67;4.20;;;13.80;99.90;;;;;;5036264;28;20048;-59
2022/05/27 00:58:55;;;;;;;19.13;4.25;;;13.70;99.90;;;;;;5037001;28;20052;-58
2022/05/27 01:01:20;;;;;;;17.23;3.88;;;13.70;99.90;;;;;;5035408;28;20106;-59
2022/05/27 01:03:47;;;;;;;18.38;4.10;;;13.70;99.90;;;;;;5029113;28;20283;-59
2022/05/27 01:06:13;;;;;;;19.33;3.90;;;13.70;99.90;;;;;;5029910;28;20479;-59
2022/05/27 01:08:39;;;;;;;17.52;3.90;;;13.60;99.90;;;;;;5038729;28;20147;-59
2022/05/27 01:11:13;;;;;;;17.38;4.00;;;13.60;99.90;;;;;;5028669;28;21029;-58
2022/05/27 01:14:00;;;;;;;16.13;3.92;;;13.60;99.90;;;;;;5033536;28;20048;-59
2022/05/27 01:16:56;;;;;;;19.85;4.35;;;13.50;99.90;;;;;;5030493;28;20881;-58
2022/05/27 01:22:25;;;;;;;;;;;13.40;99.90;;;;;;5029665;28;20053;-59
2022/05/27 01:25:18;;;;;;;23.20;4.15;;;13.30;99.90;;;;;;5032103;28;20305;-58
2022/05/27 01:28:02;;;;;;;;;;;13.30;99.90;;;;;;5032145;28;20036;-58
2022/05/27 01:30:35;;;;;;;16.38;3.70;;;13.20;99.90;;;;;;5035219;28;23418;-57
2022/05/27 01:33:32;;;;;;;17.20;3.92;;;13.10;99.90;;;;;;5029415;28;20457;-57
2022/05/27 01:36:39;;;;;;;20.35;3.97;;;13.10;99.90;;;;;;5027099;28;20435;-59
2022/05/27 01:39:10;;;;;;;16.90;3.67;;;13.10;99.90;;;;;;4971344;28;20077;-59
2022/05/27 01:42:08;;;;;;;16.50;3.55;;;13.00;99.90;;;;;;5026256;28;20055;-59
2022/05/27 01:44:42;;;;;;;16.95;3.53;;;13.00;99.90;;;;;;5029263;28;20056;-58
2022/05/27 01:47:14;;;;;;;16.50;3.45;;;12.90;99.90;;;;;;5030933;28;20532;-59
2022/05/27 01:49:45;;;;;;;;;;;12.90;99.90;;;;;;5028031;28;21525;-58
2022/05/27 01:52:26;;;;;;;12.65;3.10;;;12.80;99.90;;;;;;5034172;28;20507;-58
2022/05/27 01:54:59;;;;;;;16.63;3.20;;;12.80;99.90;;;;;;5029454;28;20059;-59
2022/05/27 01:57:39;;;;;;;12.10;3.47;;;12.70;99.90;;;;;;5037848;28;20521;-59
2022/05/27 02:00:21;;;;;;;13.15;3.42;;;12.70;99.90;;;;;;5028670;28;20052;-59
2022/05/27 02:02:54;;;;;;;19.47;4.03;;;12.70;99.90;;;;;;5032639;28;20139;-58
2022/05/27 02:05:47;;;;;;;12.38;3.10;;;12.60;99.90;;;;;;5035699;28;25413;-58
2022/05/27 02:08:23;;;;;;;15.32;3.90;;;12.60;99.90;;;;;;5025092;28;20063;-59
2022/05/27 02:11:01;;;;;;;22.90;4.15;;;12.60;99.90;;;;;;5029424;28;20155;-59
2022/05/27 02:13:58;;;;;;;16.90;3.33;;;12.50;99.90;;;;;;5030374;28;20087;-58
2022/05/27 02:16:38;;;;;;;14.18;2.97;;;12.50;99.90;;;;;;5029106;28;20056;-57
2022/05/27 02:19:24;;;;;;;15.68;4.20;;;12.50;99.90;;;;;;5028583;28;20966;-59
2022/05/27 02:21:57;;;;;;;11.93;2.80;;;12.50;99.90;;;;;;5032722;28;20147;-59
2022/05/27 02:24:37;;;;;;;17.23;3.58;;;12.40;99.90;;;;;;5022105;28;20059;-59
2022/05/27 02:27:25;;;;;;;16.70;3.30;;;12.40;99.90;;;;;;5035242;28;20490;-57
2022/05/27 02:29:54;;;;;;;12.75;3.70;;;12.30;99.90;;;;;;5033348;28;20067;-59
2022/05/27 02:32:34;;;;;;;14.45;3.28;;;12.30;99.90;;;;;;5051813;28;20032;-59
2022/05/27 02:35:08;;;;;;;20.00;3.55;;;12.30;99.90;;;;;;5033120;28;20052;-59
2022/05/27 02:37:49;;;;;;;14.35;3.83;;;12.20;99.90;;;;;;5032194;28;20044;-59
2022/05/27 02:40:20;;;;;;;17.30;3.25;;;12.10;99.90;;;;;;5025932;28;20060;-59
2022/05/27 02:43:00;;;;;;;13.25;3.40;;;12.10;99.90;;;;;;5037154;28;20543;-58
2022/05/27 02:45:35;;;;;;;12.70;3.20;;;12.10;99.90;;;;;;5031761;28;20040;-58
2022/05/27 02:48:18;;;;;;;14.40;2.85;;;12.10;99.90;;;;;;5026181;28;20044;-59
2022/05/27 02:50:57;;;;;;;21.17;2.97;;;12.00;99.90;;;;;;5024833;28;20049;-58
2022/05/27 02:53:29;;;;;;;14.35;3.63;;;12.00;99.90;;;;;;5026156;28;20055;-58
2022/05/27 02:56:05;;;;;;;10.38;3.30;;;12.00;99.90;;;;;;5031704;28;22106;-58
2022/05/27 02:58:31;;;;;;;15.13;3.40;;;11.90;99.90;;;;;;5041335;28;20036;-59
2022/05/27 03:00:58;;;;;;;15.48;2.85;;;11.90;99.90;;;;;;5027398;28;20075;-59
2022/05/27 03:03:24;;;;;;;12.63;3.15;;;11.90;99.90;;;;;;5034764;28;20053;-58
2022/05/27 03:06:25;;;;;;;10.18;2.65;;;11.80;99.90;;;;;;5025420;28;20062;-59
2022/05/27 03:09:07;;;;;;;16.05;2.83;;;11.80;99.90;;;;;;5006594;28;20796;-58
2022/05/27 03:12:05;;;;;;;12.18;3.05;;;11.80;99.90;;;;;;5030139;28;20055;-57
2022/05/27 03:14:43;;;;;;;11.82;2.80;;;11.70;99.90;;;;;;5026069;28;20139;-59
2022/05/27 03:17:46;;;;;;;14.15;3.20;;;11.70;99.90;;;;;;5035516;28;20052;-57
2022/05/27 03:21:03;;;;;;;16.30;3.13;;;11.70;99.90;;;;;;5028004;28;20471;-58
2022/05/27 03:23:48;;;;;;;14.32;2.90;;;11.60;99.90;;;;;;4999122;28;20147;-59
2022/05/27 03:26:23;;;;;;;12.10;2.83;;;11.60;99.90;;;;;;5043641;28;22541;-58
2022/05/27 03:28:49;;;;;;;16.52;2.80;;;11.50;99.90;;;;;;5039844;28;20052;-59
2022/05/27 03:31:27;;;;;;;14.18;3.30;;;11.50;99.90;;;;;;5033950;28;20068;-58
2022/05/27 03:34:02;;;;;;;14.18;2.75;;;11.50;99.90;;;;;;5034728;28;20874;-58
2022/05/27 03:36:41;;;;;;;15.57;3.20;;;11.40;99.90;;;;;;5033069;28;20570;-59
2022/05/27 03:39:13;;;;;;;11.40;3.08;;;11.50;99.90;;;;;;5030915;28;20056;-58
2022/05/27 03:41:45;;;;;;;16.58;3.15;;;11.50;99.90;;;;;;5038637;28;20082;-59
2022/05/27 03:44:17;;;;;;;14.73;3.08;;;11.40;99.90;;;;;;5033586;28;22794;-59
2022/05/27 03:46:44;;;;;;;11.15;3.28;;;11.40;99.90;;;;;;5045898;28;20443;-58
2022/05/27 03:49:10;;;;;;;16.40;3.70;;;11.40;99.90;;;;;;5030033;28;20536;-59
2022/05/27 03:52:05;;;;;;;13.20;3.00;;;11.40;99.90;;;;;;5055245;28;20147;-59
2022/05/27 03:54:31;;;;;;;15.23;3.30;;;11.50;99.90;;;;;;5051873;28;20777;-58
2022/05/27 03:56:58;;;;;;;12.23;2.92;;;11.50;99.90;;;;;;5052792;28;20508;-57
2022/05/27 03:59:24;;;;;;;16.75;3.72;;;11.50;99.90;;;;;;5058989;28;20437;-58
2022/05/27 04:01:52;;;;;;;12.23;3.08;;;11.50;99.90;;;;;;5034885;28;20405;-58
2022/05/27 04:04:20;;;;;;;16.67;2.78;;;11.50;99.90;;;;;;5050322;28;20048;-58
2022/05/27 04:06:47;;;;;;;13.98;3.30;;;11.50;99.90;;;;;;5030732;28;20087;-58
2022/05/27 04:09:15;;;;;;;12.15;2.80;;;11.60;99.90;;;;;;5030415;28;21013;-57
2022/05/27 04:11:41;;;;;;;11.85;2.70;;;11.60;99.90;;;;;;5029076;28;20574;-58
2022/05/27 04:14:07;;;;;;;13.52;3.00;;;11.60;99.90;;;;;;5040890;28;20184;-59
2022/05/27 04:16:33;;;;;;;16.60;2.83;;;11.60;99.90;;;;;;5036657;28;20047;-58
2022/05/27 04:18:59;;;;;;;12.40;2.72;;;11.60;99.90;;;;;;5030834;28;20053;-59
2022/05/27 04:21:25;;;;;;;10.73;2.83;;;11.60;99.90;;;;;;5030528;28;20153;-57
2022/05/27 04:23:51;;;;;;;11.00;2.78;;;11.60;99.90;;;;;;5028790;28;20524;-58
2022/05/27 04:26:17;;;;;;;14.77;3.33;;;11.60;99.90;;;;;;5048187;28;20041;-58
2022/05/27 04:28:43;;;;;;;19.60;3.40;;;11.60;99.90;;;;;;5053610;28;20053;-58
2022/05/27 04:31:09;;;;;;;18.35;3.40;;;11.50;99.90;;;;;;5054830;28;20267;-58
2022/05/27 04:33:35;;;;;;;17.77;3.50;;;11.50;99.90;;;;;;5032105;28;20049;-58
2022/05/27 04:36:02;;;;;;;15.68;3.30;;;11.60;99.90;;;;;;5028681;28;20048;-59
2022/05/27 04:38:28;;;;;;;15.45;3.10;;;11.50;99.90;;;;;;5035016;28;20060;-58
2022/05/27 04:40:54;;;;;;;15.50;2.75;;;11.40;99.90;;;;;;5036328;28;20044;-58
2022/05/27 04:43:21;;;;;;;14.82;3.15;;;11.50;99.90;;;;;;5035050;28;20062;-58
2022/05/27 04:45:47;;;;;;;16.15;3.25;;;11.50;99.90;;;;;;5024978;28;20114;-58
2022/05/27 04:48:14;;;;;;;13.68;3.28;;;11.60;99.90;;;;;;5031366;28;20135;-59
2022/05/27 04:50:40;;;;;;;12.90;2.60;;;11.60;99.90;;;;;;5035734;28;20044;-58
2022/05/27 04:53:06;;;;;;;18.90;3.33;;;11.70;99.90;;;;;;5024815;28;20174;-58
2022/05/27 04:55:34;;;;;;;14.05;3.40;;;11.70;99.90;;;;;;5030581;28;22782;-59
2022/05/27 04:58:00;;;;;;;15.20;3.88;;;11.80;99.90;;;;;;5028379;28;20079;-58
2022/05/27 05:00:32;;;;;;;15.27;3.78;;;11.80;99.90;;;;;;5030418;28;21149;-59
2022/05/27 05:02:58;;;;;;;15.90;3.40;;;11.80;99.90;;;;;;5024267;28;20092;-58
2022/05/27 05:05:27;;;;;;;14.30;3.40;;;11.80;99.90;;;;;;5024269;28;20581;-58
2022/05/27 05:07:59;;;;;;;20.00;3.80;;;11.90;99.90;;;;;;5026629;28;20048;-58
2022/05/27 05:10:25;;;;;;;17.92;3.75;;;11.90;99.90;;;;;;5031296;28;20044;-59
2022/05/27 05:12:51;;;;;;;13.13;2.97;;;11.90;99.90;;;;;;5036768;28;20049;-59
2022/05/27 05:15:19;;;;;;;13.63;2.90;;;11.90;99.90;;;;;;5032560;28;20075;-57
2022/05/27 05:17:45;;;;;;;23.08;3.13;;;11.90;99.90;;;;;;5036211;28;20129;-59
2022/05/27 05:20:13;;;;;;;17.17;3.25;;;11.90;99.90;;;;;;5033573;28;20081;-58
2022/05/27 05:22:39;;;;;;;11.90;3.00;;;12.00;99.90;;;;;;5028752;28;20049;-59
2022/05/27 05:25:06;;;;;;;12.60;3.80;;;12.00;99.90;;;;;;5042424;28;20040;-59
2022/05/27 05:27:34;;;;;;;17.60;3.60;;;12.00;99.90;;;;;;5051896;28;20049;-57
2022/05/27 05:30:01;;;;;;;22.10;3.30;;;12.00;99.90;;;;;;5056718;28;20080;-59
2022/05/27 05:32:27;;;;;;;20.02;3.58;;;12.00;99.90;;;;;;5055867;28;20040;-59
2022/05/27 05:34:54;;;;;;;16.10;3.40;;;12.00;99.90;;;;;;5053478;28;20040;-59
2022/05/27 05:37:20;;;;;;;10.82;2.97;;;12.00;99.90;;;;;;5059046;28;20403;-59
2022/05/27 05:39:46;;;;;;;15.80;3.35;;;12.00;99.90;;;;;;5051796;28;20040;-58
2022/05/27 05:42:12;;;;;;;14.57;2.75;;;12.00;99.90;;;;;;5054649;28;20048;-58
2022/05/27 05:44:38;;;;;;;15.27;2.92;;;12.00;99.90;;;;;;5058584;28;20119;-57
2022/05/27 05:47:04;;;;;;;14.13;2.90;;;12.00;99.90;;;;;;5059198;28;20047;-59
2022/05/27 05:49:30;;;;;;;12.77;3.10;;;12.10;99.90;;;;;;5053888;28;20830;-58
2022/05/27 05:51:58;;;;;;;16.35;3.35;;;12.10;99.90;;;;;;5051824;28;20044;-58
2022/05/27 05:54:25;;;;;;;20.08;3.47;;;12.20;99.90;;;;;;5049010;28;20170;-59
2022/05/27 05:56:51;;;;;;;15.82;3.35;;;12.20;99.90;;;;;;5045653;28;20049;-58
2022/05/27 05:59:18;;;;;;;19.42;3.97;;;12.30;99.90;;;;;;5061581;28;20721;-58
2022/05/27 06:01:45;;;;;;;25.33;4.10;;;12.30;99.90;;;;;;5061276;28;20048;-59
2022/05/27 06:04:11;;;;;;;16.52;2.83;;;12.40;99.90;;;;;;5060855;28;20113;-57
2022/05/27 06:06:37;;;;;;;17.65;3.47;;;12.40;99.90;;;;;;5060296;28;20083;-59
2022/05/27 06:09:05;;;;;;;15.30;3.35;;;12.50;99.90;;;;;;5062823;28;20055;-59
2022/05/27 06:11:31;;;;;;;21.33;3.67;;;12.50;99.90;;;;;;5058355;28;20040;-58
2022/05/27 06:13:57;;;;;;;25.00;3.53;;;12.50;99.90;;;;;;5057169;28;20073;-58
2022/05/27 06:16:23;;;;;;;16.42;3.40;;;12.60;99.90;;;;;;5058782;28;20076;-58
2022/05/27 06:18:49;;;;;;;17.30;3.50;;;12.60;99.90;;;;;;5063613;28;20048;-59
2022/05/27 06:21:16;;;;;;;12.02;3.03;;;12.70;99.90;;;;;;5054609;28;20050;-59
2022/05/27 06:23:42;;;;;;;17.40;3.70;;;12.70;99.90;;;;;;5049775;28;20056;-58
2022/05/27 06:26:10;;;;;;;16.38;3.58;;;12.70;99.90;;;;;;5055447;28;20116;-58
2022/05/27 06:34:23;;;;;;;16.33;3.00;;;12.80;99.90;;;;;;5057758;28;20546;-57
2022/05/27 06:37:10;;;;;;;19.52;4.05;;;12.90;99.90;;;;;;5053126;28;20083;-58
2022/05/27 06:39:37;;;;;;;14.85;3.20;;;13.00;99.90;;;;;;5047599;28;20583;-58
2022/05/27 06:42:05;;;;;;;16.83;3.97;;;13.10;99.90;;;;;;5062615;28;20101;-58
2022/05/27 06:44:31;;;;;;;13.50;2.95;;;13.20;99.90;;;;;;5052632;28;20044;-58
2022/05/27 06:46:57;;;;;;;12.70;3.25;;;13.30;99.90;;;;;;5046436;28;20059;-58
2022/05/27 06:49:23;;;;;;;15.63;2.92;;;13.30;99.90;;;;;;5052203;28;20041;-58
2022/05/27 06:51:50;;;;;;;18.80;3.40;;;13.30;99.90;;;;;;5054978;28;20601;-59
2022/05/27 06:54:17;;;;;;;14.88;3.60;;;13.40;99.90;;;;;;5051636;28;20051;-59
2022/05/27 06:56:45;;;;;;;15.98;3.55;;;13.30;99.90;;;;;;5058938;28;20048;-59
2022/05/27 06:59:12;;;;;;;15.82;3.60;;;13.30;99.90;;;;;;5055744;28;20052;-58
2022/05/27 07:01:38;;;;;;;16.83;3.45;;;13.30;99.70;;;;;;5054284;28;20103;-59
2022/05/27 07:04:05;;;;;;;15.80;3.95;;;13.40;98.70;;;;;;5056105;28;20131;-57
2022/05/27 07:06:37;;;;;;;12.30;3.00;;;13.40;97.20;;;;;;5055023;28;20048;-58
2022/05/27 07:09:05;;;;;;;;;;;13.40;97.30;;;;;;5051586;28;20135;-59
2022/05/27 07:11:30;;;;;;;12.13;2.85;;;13.40;98.50;;;;;;5059159;28;19943;-57
2022/05/27 07:13:56;;;;;;;13.73;2.85;;;13.50;98.50;;;;;;5056882;28;20048;-57
2022/05/27 07:16:22;;;;;;;16.88;3.92;;;13.60;98.50;;;;;;5053456;28;20045;-59
2022/05/27 07:18:48;;;;;;;19.13;3.65;;;13.70;98.60;;;;;;5056875;28;20152;-58
2022/05/27 07:21:14;;;;;;;20.75;4.45;;;13.80;98.50;;;;;;5056657;28;20094;-58
2022/05/27 07:23:39;;;;;;;19.77;3.67;;;13.90;98.30;;;;;;5048488;28;20097;-59
2022/05/27 07:26:05;;;;;;;16.95;3.30;;;14.10;98.40;;;;;;5052991;28;20083;-59
2022/05/27 07:28:31;;;;;;;20.25;3.58;;;14.10;97.90;;;;;;5054402;28;20051;-59
2022/05/27 07:31:01;;;;;;;18.20;3.63;;;14.10;97.30;;;;;;5050987;28;20513;-59
2022/05/27 07:33:28;;;;;;;18.42;3.25;;;13.90;97.10;;;;;;5058746;28;20047;-57
2022/05/27 07:35:54;;;;;;;17.25;3.05;;;13.90;97.30;;;;;;5056262;28;20045;-58
2022/05/27 07:38:21;;;;;;;23.70;3.47;;;13.80;97.60;;;;;;5050806;28;20056;-56
2022/05/27 07:40:47;;;;;;;22.30;3.45;;;13.80;97.30;;;;;;5055511;28;20115;-59
2022/05/27 07:43:13;;;;;;;21.65;4.35;;;13.80;97.40;;;;;;5050071;28;20117;-59
2022/05/27 07:45:42;;;;;;;14.63;3.30;;;13.70;97.80;;;;;;5054076;28;20056;-58
2022/05/27 07:48:09;;;;;;;16.90;3.67;;;13.70;98.30;;;;;;5032383;28;20052;-58
2022/05/27 07:50:36;;;;;;;18.15;3.20;;;13.60;98.40;;;;;;5055823;28;20060;-58
2022/05/27 07:53:02;;;;;;;16.58;3.40;;;13.60;98.20;;;;;;5058773;28;20080;-59
2022/05/27 07:55:28;;;;;;;20.63;3.58;;;13.60;97.90;;;;;;5054395;28;20110;-58
2022/05/27 07:57:54;;;;;;;12.77;3.40;;;13.70;97.40;;;;;;5052460;28;20048;-58
2022/05/27 08:00:24;;;;;;;17.95;3.28;;;13.90;97.20;;;;;;5048348;28;20074;-58
2022/05/27 08:02:50;;;;;;;12.60;3.10;;;14.10;97.40;;;;;;5053801;28;20087;-59
2022/05/27 08:05:19;;;;;;;16.10;3.58;;;14.20;97.10;;;;;;5052342;28;20048;-58
2022/05/27 08:07:46;;;;;;;14.85;3.72;;;14.20;96.60;;;;;;5055340;28;20139;-58
2022/05/27 08:10:14;;;;;;;16.77;2.88;;;14.20;96.80;;;;;;5056728;28;20036;-57
2022/05/27 08:12:40;;;;;;;12.95;3.08;;;14.30;97.10;;;;;;5054830;28;20136;-58
2022/05/27 08:15:08;;;;;;;11.10;3.42;;;14.40;96.60;;;;;;5052893;28;20048;-59
2022/05/27 08:17:35;;;;;;;14.10;2.90;;;14.40;95.70;;;;;;5055600;28;20052;-57
2022/05/27 08:20:01;;;;;;;13.85;2.92;;;14.50;95.90;;;;;;5057025;28;20192;-58
2022/05/27 08:22:27;;;;;;;16.33;2.90;;;14.60;96.10;;;;;;5053694;28;20417;-58
2022/05/27 08:24:56;;;;;;;23.65;3.72;;;14.60;96.00;;;;;;5050297;28;20054;-56
2022/05/27 08:27:22;;;;;;;18.60;3.10;;;14.60;96.00;;;;;;5057037;28;20048;-58
2022/05/27 08:29:48;;;;;;;22.35;3.80;;;14.70;95.70;;;;;;5053722;28;20052;-59
2022/05/27 08:32:14;;;;;;;16.23;3.00;;;14.70;95.40;;;;;;5052311;28;20134;-59
2022/05/27 08:40:34;;;;;;;23.10;4.10;;;14.60;94.90;;;;;;5060681;28;20071;-57
2022/05/27 08:43:07;;;;;;;22.52;3.42;;;14.70;95.30;;;;;;5026609;28;20044;-59
2022/05/27 08:45:47;;;;;;;15.68;2.90;;;14.60;94.60;;;;;;5051991;28;20053;-58
2022/05/27 08:48:14;;;;;;;16.48;3.20;;;14.60;94.30;;;;;;5056774;28;20052;-58
2022/05/27 08:50:51;;;;;;;13.57;3.60;;;14.60;94.80;;;;;;5049780;28;20051;-59
2022/05/27 08:53:26;;;;;;;18.42;3.60;;;14.50;95.10;;;;;;5057962;28;20041;-58
2022/05/27 09:01:42;;;;;;;13.55;3.38;;;14.60;95.40;;;;;;5061336;28;20534;-59
2022/05/27 09:04:17;;;;;;;13.75;3.38;;;14.50;95.20;;;;;;5060143;28;20048;-57
2022/05/27 09:07:10;;;;;;;13.32;3.65;;;14.60;95.40;;;;;;5055495;28;20482;-59
2022/05/27 09:09:37;;;;;;;15.05;3.40;;;14.60;95.30;;;;;;5057319;28;20047;-58
2022/05/27 09:12:09;;;;;;;15.40;2.92;;;14.50;95.20;;;;;;5051029;28;20159;-58
2022/05/27 09:14:39;;;;;;;21.40;3.58;;;14.40;95.50;;;;;;5053290;28;20083;-59
2022/05/27 09:17:13;;;;;;;15.27;3.03;;;14.50;95.90;;;;;;5053605;28;20048;-58
2022/05/27 09:20:06;;;;;;;17.73;3.17;;;14.60;95.40;;;;;;5052939;28;20051;-58
2022/05/27 09:22:50;;;;;;;23.55;3.40;;;14.60;95.80;;;;;;5028110;28;20056;-57
2022/05/27 09:26:02;;;;;;;18.13;3.42;;;14.70;95.30;;;;;;5051858;28;20086;-59
2022/05/27 09:28:33;;;;;;;18.92;4.07;;;14.80;95.40;;;;;;5051311;28;20048;-59
2022/05/27 09:31:00;;;;;;;21.25;3.65;;;14.90;94.90;;;;;;5050643;28;20060;-57
2022/05/27 09:33:28;;;;;;;17.77;3.90;;;14.90;94.90;;;;;;5046192;28;21149;-58
2022/05/27 09:36:10;;;;;;;17.33;3.28;;;15.00;94.90;;;;;;5050927;28;20055;-57
2022/05/27 09:38:45;;;;;;;17.60;3.53;;;15.10;94.80;;;;;;5057156;28;20090;-57
2022/05/27 09:41:26;;;;;;;20.00;3.50;;;15.20;94.70;;;;;;5052577;28;20051;-57
2022/05/27 09:43:51;;;;;;;16.77;3.20;;;15.40;94.70;;;;;;5055602;28;20048;-57
2022/05/27 09:46:29;;;;;;;19.95;3.75;;;15.50;93.90;;;;;;5053723;28;20090;-58
2022/05/27 09:48:57;;;;;;;18.77;3.80;;;15.50;93.60;;;;;;5051383;28;21572;-59
2022/05/27 09:51:24;;;;;;;21.30;3.67;;;15.40;93.40;;;;;;5037455;28;20032;-58
2022/05/27 09:53:54;;;;;;;20.33;3.47;;;15.40;93.40;;;;;;5055914;28;20447;-59
2022/05/27 09:56:54;;;;;;;17.85;3.88;;;15.30;93.40;;;;;;5050473;28;21864;-58
2022/05/27 09:59:35;;;;;;;18.35;3.17;;;15.20;93.50;;;;;;5052827;28;20153;-58
2022/05/27 10:02:34;;;;;;;18.20;3.42;;;15.40;93.70;;;;;;5046558;28;20032;-59
2022/05/27 10:05:16;;;;;;;17.60;3.55;;;15.50;93.20;;;;;;5056924;28;20687;-59
2022/05/27 10:07:55;;;;;;;21.90;3.53;;;15.50;93.20;;;;;;5048015;28;21315;-59
2022/05/27 10:10:39;;;;;;;19.10;3.33;;;15.50;92.90;;;;;;5051361;28;20052;-59
2022/05/27 10:13:22;;;;;;;17.23;3.70;;;15.40;93.30;;;;;;5054260;28;20111;-58
2022/05/27 10:15:48;;;;;;;19.98;4.05;;;15.40;93.00;;;;;;5041473;28;20351;-58
2022/05/27 10:18:22;;;;;;;23.25;4.53;;;15.30;93.50;;;;;;5050657;28;20083;-56
2022/05/27 10:21:01;;;;;;;18.65;3.45;;;15.30;93.40;;;;;;5051435;28;20083;-59
2022/05/27 10:23:35;;;;;;;17.63;3.63;;;15.40;94.40;;;;;;5047841;28;20044;-58
2022/05/27 10:26:22;;;;;;;19.83;3.53;;;15.50;94.10;;;;;;5053232;28;20490;-58
2022/05/27 10:29:05;;;;;;;19.88;3.22;;;15.40;93.50;;;;;;5052656;28;20127;-59
2022/05/27 10:31:31;;;;;;;;;;;15.40;93.50;;;;;;5052125;28;20090;-58
2022/05/27 10:33:58;;;;;;;16.00;3.53;;;15.50;94.20;;;;;;5052032;28;19920;-59
2022/05/27 10:36:29;;;;;;;19.05;3.40;;;15.60;94.10;;;;;;5052671;28;20123;-58
2022/05/27 10:38:59;;;;;;;22.67;4.47;;;15.80;94.30;;;;;;5054244;28;20049;-58
2022/05/27 10:41:53;;;;;;;15.98;3.65;;;15.90;94.20;;;;;;5058882;28;20051;-59
2022/05/27 10:44:53;;;;;;;16.50;3.58;;;16.00;93.60;;;;;;5060922;28;20044;-58
2022/05/27 10:47:56;;;;;;;19.83;3.65;;;16.10;93.30;;;;;;5053255;28;20049;-58
2022/05/27 10:50:36;;;;;;;20.35;3.92;;;16.10;92.40;;;;;;5055529;28;20119;-59
2022/05/27 10:53:22;;;;;;;18.33;4.18;;;16.00;91.50;;;;;;5058360;28;20132;-59
2022/05/27 10:55:51;;;;;;;17.20;3.42;;;15.80;92.00;;;;;;5039631;28;20040;-58
2022/05/27 11:05:08;;;;;;;23.15;3.40;;;15.80;93.10;;;;;;5038826;28;20056;-58
2022/05/27 11:07:53;;;;;;;24.50;3.38;;;15.70;92.30;;;;;;5043967;28;20047;-58
2022/05/27 11:10:24;;;;;;;14.30;3.17;;;15.70;92.30;;;;;;5047887;28;20056;-60
2022/05/27 11:15:52;;;;;;;15.70;3.40;;;15.60;91.70;;;;;;5037895;28;20044;-58
2022/05/27 11:18:38;;;;;;;19.08;3.55;;;15.60;91.60;;;;;;5028658;28;20127;-58
2022/05/27 11:21:36;;;;;;;20.02;3.83;;;15.70;91.80;;;;;;5054733;28;20722;-59
2022/05/27 11:24:31;;;;;;;23.10;3.60;;;15.90;92.50;;;;;;5042565;28;20103;-59
2022/05/27 11:27:04;;;;;;;18.60;3.30;;;16.00;92.20;;;;;;5018969;28;20071;-58
2022/05/27 11:29:56;;;;;;;19.42;3.58;;;16.10;92.10;;;;;;5040092;28;20057;-59
2022/05/27 11:32:28;;;;;;;22.63;3.72;;;16.20;91.70;;;;;;5047374;28;20080;-59
2022/05/27 11:35:00;;;;;;;17.07;3.53;;;16.10;91.00;;;;;;5046555;28;20041;-59
2022/05/27 11:37:44;;;;;;;;;;;16.20;90.70;;;;;;5051149;28;20045;-59
2022/05/27 11:40:43;;;;;;;17.00;3.55;;;16.30;91.40;;;;;;5048313;28;19932;-59
2022/05/27 11:43:28;;;;;;;18.40;3.92;;;16.30;90.70;;;;;;5050004;28;20545;-59
2022/05/27 11:46:20;;;;;;;21.02;3.50;;;16.10;90.50;;;;;;5049385;28;20040;-59
2022/05/27 11:49:23;;;;;;;16.63;3.78;;;15.90;91.30;;;;;;5047822;28;20044;-61
2022/05/27 11:52:04;;;;;;;13.23;2.83;;;15.70;91.40;;;;;;5056058;28;20068;-61
2022/05/27 11:54:38;;;;;;;19.45;3.30;;;15.60;91.20;;;;;;5060471;28;20036;-61
2022/05/27 11:57:31;;;;;;;15.52;3.70;;;15.50;91.40;;;;;;5053427;28;21909;-59
2022/05/27 12:00:03;;;;;;;17.63;3.40;;;15.50;91.80;;;;;;5053975;28;20165;-62
2022/05/27 12:02:42;;;;;;;88.17;5.87;;;15.40;91.80;;;;;;5054653;28;20114;-60
2022/05/27 12:05:14;;;;;;;19.13;3.40;;;15.30;92.10;;;;;;5053582;28;20487;-59
2022/05/27 12:08:00;;;;;;;17.70;3.03;;;15.30;92.60;;;;;;5054724;28;20109;-60
2022/05/27 12:10:56;;;;;;;20.10;3.25;;;15.40;92.90;;;;;;5050678;28;20059;-59
2022/05/27 12:13:37;;;;;;;23.55;4.00;;;15.40;92.60;;;;;;5042102;28;20045;-61
2022/05/27 12:16:12;;;;;;;23.05;3.75;;;15.60;92.00;;;;;;5051586;28;20315;-60
2022/05/27 12:19:04;;;;;;;16.17;3.30;;;15.50;91.40;;;;;;5051891;28;20080;-60
2022/05/27 12:21:39;;;;;;;22.40;3.65;;;15.40;91.40;;;;;;5050313;28;20076;-60
2022/05/27 12:24:36;;;;;;;18.02;3.45;;;15.40;92.30;;;;;;5054079;28;20052;-60
2022/05/27 12:27:04;;;;;;;18.73;3.85;;;15.70;93.10;;;;;;5052511;28;20102;-60
2022/05/27 12:29:32;;;;;;;17.60;3.25;;;15.90;93.00;;;;;;5054668;28;20762;-61
2022/05/27 12:31:59;;;;;;;16.73;3.13;;;16.10;92.00;;;;;;5053913;28;20601;-60
2022/05/27 12:34:27;;;;;;;22.25;3.60;;;16.40;91.20;;;;;;5066080;28;20044;-60
2022/05/27 12:37:13;;;;;;;19.42;3.47;;;16.60;90.50;;;;;;5055119;28;20036;-62
2022/05/27 12:39:41;;;;;;;18.30;3.30;;;16.50;90.20;;;;;;5059437;28;20058;-62
2022/05/27 12:42:07;;;;;;;13.10;3.67;;;16.40;90.00;;;;;;5056225;28;20090;-61
2022/05/27 12:44:33;;;;;;;13.60;3.10;;;16.30;89.90;;;;;;5053194;28;20076;-62
2022/05/27 12:47:01;;;;;;;18.42;3.53;;;16.10;90.40;;;;;;5053734;28;20170;-61
2022/05/27 12:49:42;;;;;;;16.20;3.28;;;16.10;90.80;;;;;;5052814;28;20044;-62
2022/05/27 12:52:30;;;;;;;16.90;3.35;;;15.90;91.30;;;;;;5050216;28;20055;-61
2022/05/27 12:54:56;;;;;;;12.75;3.03;;;15.80;91.50;;;;;;5053492;28;20067;-61
2022/05/27 13:03:33;;;;;;;21.42;3.28;;;16.10;89.40;;;;;;5055994;28;20037;-61
2022/05/27 13:06:12;;;;;;;15.88;3.05;;;16.00;90.00;;;;;;5043786;28;20495;-61
2022/05/27 13:08:53;;;;;;;15.68;3.35;;;16.00;89.40;;;;;;5054220;28;20045;-61
2022/05/27 13:11:22;;;;;;;16.58;3.75;;;16.10;89.20;;;;;;5053146;28;20389;-61
2022/05/27 13:14:18;;;;;;;17.13;3.50;;;16.00;89.10;;;;;;5051832;28;20483;-61
2022/05/27 13:17:03;;;;;;;13.02;2.70;;;15.80;90.30;;;;;;5054645;28;20044;-61
2022/05/27 13:20:19;;;;;;;17.48;3.13;;;15.70;89.10;;;;;;5047665;28;20091;-61
2022/05/27 13:23:27;;;;;;;15.48;2.80;;;15.60;88.70;;;;;;5004416;28;20516;-62
2022/05/27 13:26:15;;;;;;;19.00;3.88;;;15.50;90.10;;;;;;4953667;28;20118;-60
2022/05/27 13:28:47;;;;;;;17.98;3.40;;;15.60;90.10;;;;;;4971014;28;20050;-61
2022/05/27 13:31:20;;;;;;;21.60;3.53;;;15.60;90.30;;;;;;5023544;28;20515;-61
2022/05/27 13:33:58;;;;;;;15.20;3.47;;;15.70;90.70;;;;;;5030978;28;20041;-61
2022/05/27 13:36:27;;;;;;;13.77;2.92;;;16.00;91.70;;;;;;5054064;28;20518;-61
2022/05/27 13:39:10;;;;;;;16.20;3.28;;;16.10;90.30;;;;;;5050415;28;20115;-62
2022/05/27 13:41:42;;;;;;;16.42;3.83;;;16.10;88.90;;;;;;5045722;28;20074;-61
2022/05/27 13:44:13;;;;;;;17.17;3.83;;;16.30;89.90;;;;;;5051152;28;20136;-61
2022/05/27 13:46:44;;;;;;;19.88;3.15;;;16.60;90.00;;;;;;5050790;28;20295;-62
2022/05/27 13:49:30;;;;;;;16.67;3.63;;;16.70;89.30;;;;;;5047398;28;20558;-60